Belvedere, Georgia
Current Conditions -  °F | °C
As of 2:53 PM on Wednesday 26 Nov 2014 (Local Time) from KPDK Reporting Station
Clear Clear  
Wind Chill: 54°   Ceiling: Unl
Heat Index: 54°   Visibility: 10mi
Dew Point: 20°   Wind: 14mph
Humidity: 26%   Direction: 290°WNW
Pressure: 30.06"   Gusts: 20mph
Location:  33.7391°N, 84.2645°W
Report Text: KPDK 261953Z 29012G17KT 10SM CLR 12/M07 A3006 RMK AO2 SLP182 T01221067
Loading
Personal Weather Stations






























Interactive Weather Map New forecast layout! Learn more

10-Day Weather Forecast

Advertisements
Track Severe Weather on mobile